Home   Weather   USA   Knoxville   Past weeks
Flag for USA

Past Weather in Knoxville, Tennessee, USA — January 2019

Currently: 50 °F. Clear. (Weather station: McGhee Tyson Airport, USA). See more current weather

January 2019 Weather in Knoxville — Graph

°F

High & Low Weather Summary for January 2019

 TemperatureHumidityPressure
High69 °F (Jan 7, 12:53 pm)100% (Jan 1, 6:53 am)30.54 "Hg (Jan 1, 6:53 am)
Low14 °F (Jan 21, 6:53 am)28% (Jan 30, 4:53 pm)29.44 "Hg (Jan 19, 9:53 pm)
Average40 °F76%30.12 "Hg
* Reported Jan 1 12:13 am — Jan 31 11:53 pm, Knoxville. Weather by CustomWeather, © 2022

Note: Actual official high and low records may vary slightly from our data, if they occured in-between our weather recording intervals... More about our weather records

Knoxville Weather History for January 1, 2019

Scroll right to see more
 ConditionsComfort  
Time TempWeatherWind HumidityBarometerVisibility
12:13 am
Tue, Jan 1
58 °FLight rain. Mostly cloudy.18 mph87%30.01 "Hg10 mi
12:53 am57 °FOvercast.9 mph83%29.99 "Hg10 mi
1:53 am56 °FLow clouds.8 mph93%30.01 "Hg10 mi
2:53 am56 °FMostly cloudy.5 mph97%30.01 "Hg10 mi
3:53 am57 °FClear.9 mph93%30.02 "Hg10 mi
4:53 am56 °FOvercast.8 mph93%30.03 "Hg10 mi
5:53 am55 °FMostly cloudy.6 mph93%30.05 "Hg10 mi
6:53 am54 °FMostly cloudy.No wind100%30.06 "Hg10 mi
7:53 am53 °FMore clouds than sun.5 mph100%30.09 "Hg10 mi
8:53 am54 °FOvercast.3 mph97%30.12 "Hg10 mi
9:53 am56 °FMostly cloudy.3 mph93%30.15 "Hg10 mi
10:53 am56 °FMostly cloudy.3 mph90%30.16 "Hg10 mi
11:53 am57 °FBroken clouds.3 mph87%30.13 "Hg10 mi
12:53 pm57 °FBroken clouds.6 mph83%30.11 "Hg10 mi
1:34 pm60 °FPartly sunny.No wind75%30.13 "Hg10 mi
1:53 pm59 °FMostly cloudy.5 mph75%30.11 "Hg10 mi
2:25 pm58 °FMore clouds than sun.3 mph78%30.12 "Hg10 mi
2:53 pm60 °FBroken clouds.7 mph72%30.11 "Hg10 mi
3:53 pm58 °FCloudy.6 mph75%30.14 "Hg10 mi
4:53 pm57 °FMostly cloudy.No wind78%30.14 "Hg10 mi
5:53 pm55 °FMostly cloudy.3 mph80%30.16 "Hg10 mi
6:53 pm53 °FMostly cloudy.9 mph80%30.17 "Hg10 mi
7:53 pm51 °FOvercast.7 mph83%30.19 "Hg10 mi
8:53 pm50 °FPartly cloudy.3 mph83%30.19 "Hg10 mi
9:53 pm47 °FPassing clouds.5 mph86%30.17 "Hg10 mi
10:53 pm47 °FPassing clouds.3 mph86%30.16 "Hg10 mi
11:16 pm47 °FPartly cloudy.No wind90%30.19 "Hg10 mi
11:53 pm47 °FPartly cloudy.5 mph86%30.17 "Hg10 mi
Weather by CustomWeather, © 2022

See weather overview